createdAt,value
2023-03-26T00:00:45.009Z,97226.75
2023-03-26T00:05:49.540Z,97223.81
2023-03-26T00:10:54.148Z,97218.13
2023-03-26T00:16:00.108Z,97214.28
2023-03-26T00:21:06.857Z,97215.22
2023-03-26T00:26:11.901Z,97212.47
2023-03-26T00:31:18.009Z,97207.56
2023-03-26T00:36:22.825Z,97199.91
2023-03-26T00:41:31.225Z,97198.41
2023-03-26T00:46:37.451Z,97174.56
2023-03-26T00:51:42.236Z,97181.69
2023-03-26T00:56:46.771Z,97181.28
2023-03-26T01:01:55.189Z,97186.94
2023-03-26T01:07:02.819Z,97184.53
2023-03-26T01:12:08.540Z,97177.16
2023-03-26T01:17:16.205Z,97177.38
2023-03-26T01:22:21.971Z,97176.13
2023-03-26T01:27:33.740Z,97174.13
2023-03-26T01:32:55.616Z,97164.84
2023-03-26T01:38:18.543Z,97172.84
2023-03-26T01:43:29.094Z,97167.41
2023-03-26T01:48:36.210Z,97158.34
2023-03-26T01:53:43.617Z,97165.22
2023-03-26T01:58:57.747Z,97171.53
2023-03-26T02:04:09.094Z,97171.34
2023-03-26T02:09:18.502Z,97153.16
2023-03-26T02:14:24.051Z,97158.91
2023-03-26T02:19:28.580Z,97159.53
2023-03-26T02:24:32.540Z,97159.47
2023-03-26T02:29:39.834Z,97155.22
2023-03-26T02:34:47.488Z,97151.38
2023-03-26T02:39:51.916Z,97152.91
2023-03-26T02:45:09.239Z,97139.22
2023-03-26T02:50:13.766Z,97139.69
2023-03-26T02:55:41.835Z,97150.94
2023-03-26T03:00:51.863Z,97145.41
2023-03-26T03:06:05.705Z,97150.69
2023-03-26T03:11:21.802Z,97153.53
2023-03-26T03:16:30.306Z,97150.03
2023-03-26T03:21:37.691Z,97142.16
2023-03-26T03:26:45.670Z,97147.34
2023-03-26T03:32:07.344Z,97146.53
2023-03-26T03:37:17.358Z,97147.63
2023-03-26T03:42:31.916Z,97140.19
2023-03-26T03:47:40.655Z,97147.81
2023-03-26T03:52:44.817Z,97162.19
2023-03-26T03:57:52.569Z,97167.75
2023-03-26T04:03:06.689Z,97156.84
2023-03-26T04:08:11.937Z,97145.72
2023-03-26T04:13:29.134Z,97148.00
2023-03-26T04:19:04.866Z,97146.66
2023-03-26T04:24:11.055Z,97146.28
2023-03-26T04:29:53.590Z,97138.22
2023-03-26T04:35:04.254Z,97144.97
2023-03-26T04:40:14.532Z,97140.56
2023-03-26T04:45:32.000Z,97136.34
2023-03-26T04:50:38.118Z,97130.72
2023-03-26T04:55:46.361Z,97132.88
2023-03-26T05:01:09.921Z,97129.66
2023-03-26T05:06:22.020Z,97137.53
2023-03-26T05:11:26.799Z,97123.75
2023-03-26T05:16:31.838Z,97126.81
2023-03-26T05:21:54.592Z,97133.84
2023-03-26T05:26:59.113Z,97138.31
2023-03-26T05:32:04.042Z,97134.50
2023-03-26T05:37:10.184Z,97130.72
2023-03-26T05:42:39.899Z,97137.34
2023-03-26T05:48:02.309Z,97137.25
2023-03-26T05:53:07.913Z,97137.88
2023-03-26T05:58:21.450Z,97146.03
2023-03-26T06:03:40.200Z,97144.53
2023-03-26T06:09:02.073Z,97137.75
2023-03-26T06:14:08.439Z,97145.78
2023-03-26T06:19:15.861Z,97153.75
2023-03-26T06:24:37.319Z,97150.94
2023-03-26T06:29:58.818Z,97155.84
2023-03-26T06:35:14.614Z,97154.16
2023-03-26T06:40:20.664Z,97159.16
2023-03-26T06:45:44.166Z,97154.94
2023-03-26T06:51:09.076Z,97164.69
2023-03-26T06:56:33.020Z,97166.53
2023-03-26T07:01:50.956Z,97164.75
2023-03-26T07:07:14.262Z,97166.38
2023-03-26T07:12:38.681Z,97170.00
2023-03-26T07:18:01.719Z,97171.06
2023-03-26T07:23:11.451Z,97170.75
2023-03-26T07:28:40.465Z,97175.66
2023-03-26T07:33:50.519Z,97176.53
2023-03-26T07:39:20.866Z,97175.28
2023-03-26T07:44:56.836Z,97173.94
2023-03-26T07:50:18.820Z,97172.94
2023-03-26T07:55:45.968Z,97183.78
2023-03-26T08:01:26.083Z,97182.38
2023-03-26T08:06:36.742Z,97181.00
2023-03-26T08:12:18.932Z,97182.31
2023-03-26T08:17:31.881Z,97182.19
2023-03-26T08:22:41.011Z,97180.88
2023-03-26T08:27:50.108Z,97163.28
2023-03-26T08:32:57.613Z,97170.03
2023-03-26T08:38:02.000Z,97167.91
2023-03-26T08:43:58.056Z,97167.91
2023-03-26T08:49:30.633Z,97170.91
2023-03-26T08:55:09.785Z,97166.78
2023-03-26T09:01:02.994Z,97163.38
2023-03-26T09:06:25.480Z,97159.28
2023-03-26T09:11:56.392Z,97160.16
2023-03-26T09:17:21.774Z,97159.81
2023-03-26T09:23:14.654Z,97151.34
2023-03-26T09:28:58.228Z,97149.78
2023-03-26T09:34:12.366Z,97154.91
2023-03-26T09:39:28.502Z,97157.69
2023-03-26T09:45:00.428Z,97145.09
2023-03-26T09:50:30.573Z,97141.09
2023-03-26T09:55:46.486Z,97133.06
2023-03-26T10:00:58.749Z,97134.22
2023-03-26T10:06:22.640Z,97129.97
2023-03-26T10:11:38.753Z,97125.91
2023-03-26T10:16:53.189Z,97132.38
2023-03-26T10:22:04.797Z,97133.81
2023-03-26T10:27:29.341Z,97149.47
2023-03-26T10:32:39.621Z,97152.19
2023-03-26T10:37:54.776Z,97155.94
2023-03-26T10:43:49.768Z,97132.66
2023-03-26T10:49:18.156Z,97141.91
2023-03-26T10:54:31.224Z,97139.84
2023-03-26T10:59:35.648Z,97132.66
2023-03-26T11:04:50.800Z,97130.25
2023-03-26T11:10:01.689Z,97117.53
2023-03-26T11:15:18.370Z,97119.44
2023-03-26T11:20:30.052Z,97109.50
2023-03-26T11:25:55.332Z,97099.25
2023-03-26T11:31:04.570Z,97096.63
2023-03-26T11:36:15.178Z,97096.13
2023-03-26T11:41:23.436Z,97086.97
2023-03-26T11:46:33.551Z,97083.78
2023-03-26T11:51:41.273Z,97073.00
2023-03-26T11:57:05.969Z,97065.81
2023-03-26T12:02:23.891Z,97071.47
2023-03-26T12:07:33.457Z,97063.25
2023-03-26T12:12:40.435Z,97057.88
2023-03-26T12:17:45.179Z,97067.19
2023-03-26T12:22:53.229Z,97070.81
2023-03-26T12:28:02.459Z,97063.94
2023-03-26T12:33:09.067Z,97061.06
2023-03-26T12:38:25.069Z,97049.06
2023-03-26T12:44:48.417Z,97042.84
2023-03-26T12:48:59.835Z,97032.66
2023-03-26T12:54:25.997Z,97044.84
2023-03-26T12:59:38.648Z,97075.47
2023-03-26T13:05:05.497Z,97074.22
2023-03-26T13:10:30.497Z,97055.63
2023-03-26T13:15:37.822Z,97032.69
2023-03-26T13:20:51.472Z,97036.56
2023-03-26T13:26:06.280Z,97029.53
2023-03-26T13:31:17.223Z,97022.63
2023-03-26T13:36:26.232Z,97013.28
2023-03-26T13:41:37.359Z,97011.94
2023-03-26T13:46:43.958Z,96996.28
2023-03-26T13:51:51.580Z,96999.22
2023-03-26T13:57:02.553Z,97000.50
2023-03-26T14:02:11.973Z,97006.31
2023-03-26T14:07:22.563Z,97000.19
2023-03-26T14:12:38.236Z,96995.91
2023-03-26T14:17:49.369Z,97002.97
2023-03-26T14:23:31.712Z,96999.41
2023-03-26T14:29:14.668Z,96991.28
2023-03-26T14:34:58.687Z,96982.03
2023-03-26T14:40:19.351Z,96978.53
2023-03-26T14:45:46.891Z,96986.53
2023-03-26T14:51:02.531Z,96993.44
2023-03-26T14:56:46.908Z,97013.56
2023-03-26T15:02:29.222Z,97013.28
2023-03-26T15:08:02.145Z,96999.38
2023-03-26T15:13:25.329Z,96985.16
2023-03-26T15:18:49.747Z,96982.59
2023-03-26T15:24:44.902Z,96977.59
2023-03-26T15:30:17.941Z,96969.97
2023-03-26T15:35:50.178Z,96971.59
2023-03-26T15:41:02.843Z,96961.38
2023-03-26T15:46:27.296Z,96961.91
2023-03-26T15:51:47.099Z,96967.34
2023-03-26T15:57:09.035Z,96961.28
2023-03-26T16:02:24.037Z,96964.34
2023-03-26T16:07:48.071Z,96956.94
2023-03-26T16:13:14.495Z,96953.72
2023-03-26T16:18:33.966Z,96948.72
2023-03-26T16:23:55.231Z,96946.13
2023-03-26T16:29:16.004Z,96946.13
2023-03-26T16:34:27.201Z,96939.31
2023-03-26T16:39:42.236Z,96928.91
2023-03-26T16:44:52.830Z,96930.91
2023-03-26T16:50:09.553Z,96929.28
2023-03-26T16:55:20.418Z,96930.47
2023-03-26T17:00:36.013Z,96930.44
2023-03-26T17:05:49.169Z,96936.16
2023-03-26T17:11:00.464Z,96918.25
2023-03-26T17:16:12.517Z,96923.59
2023-03-26T17:21:20.823Z,96922.31
2023-03-26T17:26:28.219Z,96919.81
2023-03-26T17:31:44.316Z,96928.72
2023-03-26T17:36:57.012Z,96930.00
2023-03-26T17:42:32.707Z,96926.91
2023-03-26T17:47:40.479Z,96919.31
2023-03-26T17:52:55.679Z,96914.56
2023-03-26T17:58:03.475Z,96916.22
2023-03-26T18:03:15.254Z,96913.78
2023-03-26T18:08:45.221Z,96924.06
2023-03-26T18:14:21.788Z,96919.50
2023-03-26T18:19:26.594Z,96923.50
2023-03-26T18:24:34.595Z,96916.03
2023-03-26T18:29:43.707Z,96903.28
2023-03-26T18:34:50.132Z,96891.41
2023-03-26T18:40:02.363Z,96898.84
2023-03-26T18:45:10.744Z,96896.47
2023-03-26T18:50:16.850Z,96908.03
2023-03-26T18:55:22.262Z,96908.47
2023-03-26T19:00:28.023Z,96907.47
2023-03-26T19:05:33.900Z,96896.38
2023-03-26T19:10:39.489Z,96896.88
2023-03-26T19:15:44.736Z,96892.56
2023-03-26T19:20:50.750Z,96900.47
2023-03-26T19:25:57.920Z,96902.56
2023-03-26T19:31:09.070Z,96890.59
2023-03-26T19:36:18.815Z,96879.06
2023-03-26T19:41:27.303Z,96870.38
2023-03-26T19:46:53.398Z,96859.81
2023-03-26T19:52:12.245Z,96852.59
2023-03-26T19:57:18.200Z,96853.19
2023-03-26T20:02:22.884Z,96850.09
2023-03-26T20:07:34.962Z,96844.19
2023-03-26T20:12:41.781Z,96849.03
2023-03-26T20:17:47.283Z,96857.81
2023-03-26T20:22:52.003Z,96866.69
2023-03-26T20:27:58.504Z,96867.78
2023-03-26T20:33:11.842Z,96858.94
2023-03-26T20:38:19.869Z,96859.69
2023-03-26T20:43:30.175Z,96863.69
2023-03-26T20:48:35.375Z,96860.41
2023-03-26T20:53:41.591Z,96862.09
2023-03-26T20:58:52.657Z,96852.16
2023-03-26T21:04:04.289Z,96845.59
2023-03-26T21:09:10.329Z,96825.66
2023-03-26T21:14:20.786Z,96818.31
2023-03-26T21:19:25.254Z,96808.81
2023-03-26T21:24:40.229Z,96805.97
2023-03-26T21:29:46.864Z,96795.28
2023-03-26T21:34:58.143Z,96792.97
2023-03-26T21:40:14.139Z,96791.44
2023-03-26T21:45:21.123Z,96776.94
2023-03-26T21:50:25.805Z,96776.41
2023-03-26T21:55:36.147Z,96777.44
2023-03-26T22:00:51.781Z,96778.38
2023-03-26T22:06:00.820Z,96765.03
2023-03-26T22:11:05.196Z,96753.09
2023-03-26T22:16:11.945Z,96746.22
2023-03-26T22:21:16.281Z,96751.34
2023-03-26T22:26:21.990Z,96754.94
2023-03-26T22:31:28.083Z,96753.53
2023-03-26T22:36:32.873Z,96764.94
2023-03-26T22:41:37.229Z,96773.28
2023-03-26T22:46:44.873Z,96775.63
2023-03-26T22:51:50.332Z,96777.13
2023-03-26T22:56:55.504Z,96756.03
2023-03-26T23:02:01.472Z,96757.31
2023-03-26T23:07:06.027Z,96771.44
2023-03-26T23:12:10.293Z,96755.41
2023-03-26T23:17:15.789Z,96770.94
2023-03-26T23:22:20.368Z,96764.94
2023-03-26T23:27:24.698Z,96764.13
2023-03-26T23:32:30.535Z,96756.38
2023-03-26T23:37:35.513Z,96756.22
2023-03-26T23:42:39.992Z,96767.78
2023-03-26T23:47:46.865Z,96757.44
2023-03-26T23:52:52.583Z,96754.66
2023-03-26T23:57:57.442Z,96741.31
